sensor_id;sensor_type;location;lat;lon;timestamp;pressure;altitude;pressure_sealevel;temperature;humidity
61345;BME280;47216;42.656;23.232;2022-11-23T00:01:17;92683.34;;;6.56;86.33
61345;BME280;47216;42.656;23.232;2022-11-23T00:03:47;92692.16;;;6.55;86.94
61345;BME280;47216;42.656;23.232;2022-11-23T00:06:14;92686.94;;;6.50;87.24
61345;BME280;47216;42.656;23.232;2022-11-23T00:08:41;92694.72;;;6.50;87.32
61345;BME280;47216;42.656;23.232;2022-11-23T00:11:08;92700.09;;;6.43;87.54
61345;BME280;47216;42.656;23.232;2022-11-23T00:13:37;92693.09;;;6.39;88.08
61345;BME280;47216;42.656;23.232;2022-11-23T00:16:05;92682.78;;;6.49;87.58
61345;BME280;47216;42.656;23.232;2022-11-23T00:18:32;92679.72;;;6.52;87.30
61345;BME280;47216;42.656;23.232;2022-11-23T00:20:59;92670.88;;;6.48;87.41
61345;BME280;47216;42.656;23.232;2022-11-23T00:23:30;92673.72;;;6.51;87.80
61345;BME280;47216;42.656;23.232;2022-11-23T00:25:57;92667.72;;;6.36;88.36
61345;BME280;47216;42.656;23.232;2022-11-23T00:28:24;92661.53;;;6.47;88.05
61345;BME280;47216;42.656;23.232;2022-11-23T00:30:52;92662.88;;;6.49;87.80
61345;BME280;47216;42.656;23.232;2022-11-23T00:33:19;92673.50;;;6.53;88.10
61345;BME280;47216;42.656;23.232;2022-11-23T00:35:45;92677.59;;;6.49;88.10
61345;BME280;47216;42.656;23.232;2022-11-23T00:38:12;92676.16;;;6.68;87.23
61345;BME280;47216;42.656;23.232;2022-11-23T00:40:39;92671.22;;;6.62;87.67
61345;BME280;47216;42.656;23.232;2022-11-23T00:43:06;92679.78;;;6.67;87.75
61345;BME280;47216;42.656;23.232;2022-11-23T00:45:33;92671.75;;;6.64;87.61
61345;BME280;47216;42.656;23.232;2022-11-23T00:48:01;92654.13;;;6.66;88.14
61345;BME280;47216;42.656;23.232;2022-11-23T00:50:27;92671.47;;;6.65;87.72
61345;BME280;47216;42.656;23.232;2022-11-23T00:52:54;92658.78;;;6.64;88.02
61345;BME280;47216;42.656;23.232;2022-11-23T00:55:21;92663.75;;;6.70;87.79
61345;BME280;47216;42.656;23.232;2022-11-23T00:57:48;92662.22;;;6.80;87.82
61345;BME280;47216;42.656;23.232;2022-11-23T01:00:15;92663.78;;;6.81;87.71
61345;BME280;47216;42.656;23.232;2022-11-23T01:02:42;92670.78;;;6.85;86.99
61345;BME280;47216;42.656;23.232;2022-11-23T01:05:10;92658.59;;;6.81;87.26
61345;BME280;47216;42.656;23.232;2022-11-23T01:07:37;92647.66;;;6.63;87.74
61345;BME280;47216;42.656;23.232;2022-11-23T01:10:05;92656.44;;;6.62;88.30
61345;BME280;47216;42.656;23.232;2022-11-23T01:12:32;92658.03;;;6.68;88.58
61345;BME280;47216;42.656;23.232;2022-11-23T01:14:59;92653.63;;;6.74;88.05
61345;BME280;47216;42.656;23.232;2022-11-23T01:17:26;92661.19;;;6.86;88.16
61345;BME280;47216;42.656;23.232;2022-11-23T01:19:53;92658.06;;;6.84;87.88
61345;BME280;47216;42.656;23.232;2022-11-23T01:22:21;92652.91;;;6.84;87.34
61345;BME280;47216;42.656;23.232;2022-11-23T01:24:48;92654.50;;;6.95;87.06
61345;BME280;47216;42.656;23.232;2022-11-23T01:27:15;92654.47;;;6.90;87.20
61345;BME280;47216;42.656;23.232;2022-11-23T01:29:42;92645.41;;;6.82;87.38
61345;BME280;47216;42.656;23.232;2022-11-23T01:32:08;92637.88;;;6.81;87.18
61345;BME280;47216;42.656;23.232;2022-11-23T01:34:35;92642.28;;;6.85;87.59
61345;BME280;47216;42.656;23.232;2022-11-23T01:37:02;92650.81;;;6.81;87.89
61345;BME280;47216;42.656;23.232;2022-11-23T01:39:30;92662.78;;;6.92;87.36
61345;BME280;47216;42.656;23.232;2022-11-23T01:41:57;92653.69;;;6.84;87.03
61345;BME280;47216;42.656;23.232;2022-11-23T01:44:28;92641.28;;;6.86;87.33
61345;BME280;47216;42.656;23.232;2022-11-23T01:46:57;92649.31;;;6.95;87.45
61345;BME280;47216;42.656;23.232;2022-11-23T01:49:25;92658.38;;;6.98;86.59
61345;BME280;47216;42.656;23.232;2022-11-23T01:51:55;92654.72;;;6.88;87.21
61345;BME280;47216;42.656;23.232;2022-11-23T01:54:28;92654.72;;;6.88;87.70
61345;BME280;47216;42.656;23.232;2022-11-23T01:57:00;92638.41;;;6.93;87.15
61345;BME280;47216;42.656;23.232;2022-11-23T01:59:29;92642.28;;;6.80;87.79
61345;BME280;47216;42.656;23.232;2022-11-23T02:01:58;92635.81;;;6.88;87.54
61345;BME280;47216;42.656;23.232;2022-11-23T02:04:28;92637.31;;;6.73;87.83
61345;BME280;47216;42.656;23.232;2022-11-23T02:06:56;92635.28;;;6.81;87.85
61345;BME280;47216;42.656;23.232;2022-11-23T02:09:25;92631.69;;;6.87;88.00
61345;BME280;47216;42.656;23.232;2022-11-23T02:11:52;92622.38;;;6.91;87.54
61345;BME280;47216;42.656;23.232;2022-11-23T02:14:20;92624.44;;;6.99;88.35
61345;BME280;47216;42.656;23.232;2022-11-23T02:16:47;92616.97;;;7.13;86.82
61345;BME280;47216;42.656;23.232;2022-11-23T02:19:19;92619.78;;;6.96;87.00
61345;BME280;47216;42.656;23.232;2022-11-23T02:21:51;92613.56;;;6.92;86.82
61345;BME280;47216;42.656;23.232;2022-11-23T02:24:23;92617.69;;;6.88;87.31
61345;BME280;47216;42.656;23.232;2022-11-23T02:26:53;92618.72;;;6.92;87.85
61345;BME280;47216;42.656;23.232;2022-11-23T02:29:22;92612.56;;;7.08;86.98
61345;BME280;47216;42.656;23.232;2022-11-23T02:31:50;92612.03;;;7.01;86.78
61345;BME280;47216;42.656;23.232;2022-11-23T02:34:17;92619.53;;;6.98;86.99
61345;BME280;47216;42.656;23.232;2022-11-23T02:36:46;92612.00;;;6.91;88.27
61345;BME280;47216;42.656;23.232;2022-11-23T02:39:15;92597.50;;;6.95;87.56
61345;BME280;47216;42.656;23.232;2022-11-23T02:41:44;92594.41;;;7.03;86.88
61345;BME280;47216;42.656;23.232;2022-11-23T02:44:28;92583.50;;;6.96;86.99
61345;BME280;47216;42.656;23.232;2022-11-23T02:46:57;92580.41;;;6.94;86.92
61345;BME280;47216;42.656;23.232;2022-11-23T02:49:24;92581.94;;;6.95;87.09
61345;BME280;47216;42.656;23.232;2022-11-23T02:51:51;92574.94;;;6.90;86.95
61345;BME280;47216;42.656;23.232;2022-11-23T02:54:18;92577.28;;;6.97;87.07
61345;BME280;47216;42.656;23.232;2022-11-23T02:56:45;92565.09;;;6.92;86.77
61345;BME280;47216;42.656;23.232;2022-11-23T02:59:12;92561.72;;;6.92;86.90
61345;BME280;47216;42.656;23.232;2022-11-23T03:01:40;92559.41;;;6.96;86.67
61345;BME280;47216;42.656;23.232;2022-11-23T03:04:07;92577.28;;;6.97;85.66
61345;BME280;47216;42.656;23.232;2022-11-23T03:06:35;92574.16;;;6.95;85.65
61345;BME280;47216;42.656;23.232;2022-11-23T03:09:02;92564.31;;;6.87;85.99
61345;BME280;47216;42.656;23.232;2022-11-23T03:11:28;92559.16;;;6.97;85.99
61345;BME280;47216;42.656;23.232;2022-11-23T03:13:55;92560.44;;;6.94;85.42
61345;BME280;47216;42.656;23.232;2022-11-23T03:16:22;92556.56;;;6.97;85.42
61345;BME280;47216;42.656;23.232;2022-11-23T03:18:50;92561.47;;;6.93;85.67
61345;BME280;47216;42.656;23.232;2022-11-23T03:21:17;92545.66;;;6.85;85.50
61345;BME280;47216;42.656;23.232;2022-11-23T03:23:44;92563.78;;;6.90;85.53
61345;BME280;47216;42.656;23.232;2022-11-23T03:26:11;92549.25;;;6.84;85.54
61345;BME280;47216;42.656;23.232;2022-11-23T03:28:38;92554.97;;;6.81;85.86
61345;BME280;47216;42.656;23.232;2022-11-23T03:31:04;92554.44;;;6.84;85.96
61345;BME280;47216;42.656;23.232;2022-11-23T03:33:31;92553.16;;;6.81;86.33
61345;BME280;47216;42.656;23.232;2022-11-23T03:36:00;92544.06;;;6.73;86.22
61345;BME280;47216;42.656;23.232;2022-11-23T03:38:26;92539.41;;;6.76;85.99
61345;BME280;47216;42.656;23.232;2022-11-23T03:40:53;92539.16;;;6.77;86.33
61345;BME280;47216;42.656;23.232;2022-11-23T03:43:20;92524.13;;;6.69;85.60
61345;BME280;47216;42.656;23.232;2022-11-23T03:45:47;92524.88;;;6.64;86.13
61345;BME280;47216;42.656;23.232;2022-11-23T03:48:14;92513.97;;;6.52;86.63
61345;BME280;47216;42.656;23.232;2022-11-23T03:50:41;92512.94;;;6.48;86.74
61345;BME280;47216;42.656;23.232;2022-11-23T03:53:09;92506.69;;;6.44;86.68
61345;BME280;47216;42.656;23.232;2022-11-23T03:55:36;92512.41;;;6.46;86.36
61345;BME280;47216;42.656;23.232;2022-11-23T03:58:03;92517.56;;;6.46;86.52
61345;BME280;47216;42.656;23.232;2022-11-23T04:00:31;92532.06;;;6.42;86.21
61345;BME280;47216;42.656;23.232;2022-11-23T04:02:58;92530.78;;;6.44;85.85
61345;BME280;47216;42.656;23.232;2022-11-23T04:05:25;92535.19;;;6.44;85.90
61345;BME280;47216;42.656;23.232;2022-11-23T04:07:52;92545.50;;;6.34;85.86
61345;BME280;47216;42.656;23.232;2022-11-23T04:10:20;92548.09;;;6.39;86.21
61345;BME280;47216;42.656;23.232;2022-11-23T04:12:49;92550.19;;;6.47;85.34
61345;BME280;47216;42.656;23.232;2022-11-23T04:15:17;92535.69;;;6.46;85.16
61345;BME280;47216;42.656;23.232;2022-11-23T04:17:44;92531.00;;;6.38;84.80
61345;BME280;47216;42.656;23.232;2022-11-23T04:20:11;92539.28;;;6.40;85.08
61345;BME280;47216;42.656;23.232;2022-11-23T04:22:38;92535.63;;;6.30;85.25
61345;BME280;47216;42.656;23.232;2022-11-23T04:25:06;92546.03;;;6.36;85.23
61345;BME280;47216;42.656;23.232;2022-11-23T04:27:34;92543.94;;;6.32;85.28
61345;BME280;47216;42.656;23.232;2022-11-23T04:30:01;92556.81;;;6.17;85.54
61345;BME280;47216;42.656;23.232;2022-11-23T04:32:28;92549.28;;;6.10;85.63
61345;BME280;47216;42.656;23.232;2022-11-23T04:34:54;92556.78;;;6.12;85.51
61345;BME280;47216;42.656;23.232;2022-11-23T04:37:21;92553.94;;;6.14;85.67
61345;BME280;47216;42.656;23.232;2022-11-23T04:39:48;92572.19;;;5.92;86.35
61345;BME280;47216;42.656;23.232;2022-11-23T04:42:15;92560.50;;;5.89;86.59
61345;BME280;47216;42.656;23.232;2022-11-23T04:44:43;92571.72;;;6.00;86.64
61345;BME280;47216;42.656;23.232;2022-11-23T04:47:10;92571.19;;;5.98;86.59
61345;BME280;47216;42.656;23.232;2022-11-23T04:49:37;92568.63;;;6.03;86.73
61345;BME280;47216;42.656;23.232;2022-11-23T04:52:04;92564.53;;;6.12;86.45
61345;BME280;47216;42.656;23.232;2022-11-23T04:54:32;92560.31;;;5.96;86.26
61345;BME280;47216;42.656;23.232;2022-11-23T04:56:58;92573.84;;;6.08;86.04
61345;BME280;47216;42.656;23.232;2022-11-23T04:59:25;92573.84;;;6.08;85.73
61345;BME280;47216;42.656;23.232;2022-11-23T05:01:54;92569.47;;;6.08;85.75
61345;BME280;47216;42.656;23.232;2022-11-23T05:04:20;92573.84;;;6.08;85.43
61345;BME280;47216;42.656;23.232;2022-11-23T05:06:47;92580.34;;;6.10;85.83
61345;BME280;47216;42.656;23.232;2022-11-23T05:09:14;92566.13;;;6.13;85.97
61345;BME280;47216;42.656;23.232;2022-11-23T05:11:41;92559.94;;;6.19;85.68
61345;BME280;47216;42.656;23.232;2022-11-23T05:14:08;92561.25;;;6.27;85.56
61345;BME280;47216;42.656;23.232;2022-11-23T05:16:35;92565.91;;;6.20;85.39
61345;BME280;47216;42.656;23.232;2022-11-23T05:19:03;92575.19;;;6.21;85.59
61345;BME280;47216;42.656;23.232;2022-11-23T05:21:30;92576.50;;;6.18;85.28
61345;BME280;47216;42.656;23.232;2022-11-23T05:23:57;92563.53;;;6.18;85.85
61345;BME280;47216;42.656;23.232;2022-11-23T05:26:24;92571.84;;;6.20;85.65
61345;BME280;47216;42.656;23.232;2022-11-23T05:28:50;92571.56;;;6.17;86.26
61345;BME280;47216;42.656;23.232;2022-11-23T05:31:17;92558.78;;;6.00;87.40
61345;BME280;47216;42.656;23.232;2022-11-23T05:33:44;92574.38;;;6.10;87.34
61345;BME280;47216;42.656;23.232;2022-11-23T05:36:12;92568.94;;;6.12;87.42
61345;BME280;47216;42.656;23.232;2022-11-23T05:38:39;92571.84;;;6.20;87.26
61345;BME280;47216;42.656;23.232;2022-11-23T05:41:06;92554.19;;;6.12;87.53
61345;BME280;47216;42.656;23.232;2022-11-23T05:43:33;92549.34;;;6.26;87.45
61345;BME280;47216;42.656;23.232;2022-11-23T05:46:00;92548.56;;;6.25;87.90
61345;BME280;47216;42.656;23.232;2022-11-23T05:48:27;92550.69;;;6.34;87.44
61345;BME280;47216;42.656;23.232;2022-11-23T05:50:54;92559.75;;;6.36;87.95
61345;BME280;47216;42.656;23.232;2022-11-23T05:53:22;92548.88;;;6.39;87.98
61345;BME280;47216;42.656;23.232;2022-11-23T05:55:49;92559.75;;;6.41;87.59
61345;BME280;47216;42.656;23.232;2022-11-23T05:58:15;92549.41;;;6.46;88.20
61345;BME280;47216;42.656;23.232;2022-11-23T06:00:42;92551.25;;;6.51;88.06
61345;BME280;47216;42.656;23.232;2022-11-23T06:03:09;92546.59;;;6.53;87.78
61345;BME280;47216;42.656;23.232;2022-11-23T06:05:36;92561.13;;;6.64;88.02
61345;BME280;47216;42.656;23.232;2022-11-23T06:08:03;92570.72;;;6.64;87.91
61345;BME280;47216;42.656;23.232;2022-11-23T06:10:32;92573.63;;;6.72;87.96
61345;BME280;47216;42.656;23.232;2022-11-23T06:13:01;92569.97;;;6.79;87.69
61345;BME280;47216;42.656;23.232;2022-11-23T06:15:28;92581.41;;;6.88;87.28
61345;BME280;47216;42.656;23.232;2022-11-23T06:17:58;92577.78;;;6.89;86.75
61345;BME280;47216;42.656;23.232;2022-11-23T06:20:25;92580.44;;;7.14;87.45
61345;BME280;47216;42.656;23.232;2022-11-23T06:22:52;92597.00;;;7.08;87.01
61345;BME280;47216;42.656;23.232;2022-11-23T06:25:19;92591.56;;;7.05;86.88
61345;BME280;47216;42.656;23.232;2022-11-23T06:27:53;92603.75;;;7.09;87.35
61345;BME280;47216;42.656;23.232;2022-11-23T06:30:20;92599.06;;;7.11;87.03
61345;BME280;47216;42.656;23.232;2022-11-23T06:32:47;92593.94;;;7.17;86.67
61345;BME280;47216;42.656;23.232;2022-11-23T06:35:14;92597.78;;;7.09;86.58
61345;BME280;47216;42.656;23.232;2022-11-23T06:37:41;92598.53;;;6.99;86.99
61345;BME280;47216;42.656;23.232;2022-11-23T06:40:09;92598.00;;;6.92;87.72
61345;BME280;47216;42.656;23.232;2022-11-23T06:42:36;92593.41;;;7.14;86.67
61345;BME280;47216;42.656;23.232;2022-11-23T06:45:06;92587.16;;;7.10;87.13
61345;BME280;47216;42.656;23.232;2022-11-23T06:47:33;92582.47;;;7.02;86.35
61345;BME280;47216;42.656;23.232;2022-11-23T06:50:00;92579.38;;;7.10;87.03
61345;BME280;47216;42.656;23.232;2022-11-23T06:52:26;92583.03;;;7.09;87.07
61345;BME280;47216;42.656;23.232;2022-11-23T06:54:53;92584.31;;;7.12;87.61
61345;BME280;47216;42.656;23.232;2022-11-23T06:57:20;92581.97;;;7.15;87.62
61345;BME280;47216;42.656;23.232;2022-11-23T06:59:47;92574.75;;;7.28;87.72
61345;BME280;47216;42.656;23.232;2022-11-23T07:02:15;92574.47;;;7.24;87.83
61345;BME280;47216;42.656;23.232;2022-11-23T07:04:42;92583.53;;;7.11;88.46
61345;BME280;47216;42.656;23.232;2022-11-23T07:07:09;92564.63;;;7.21;88.53
61345;BME280;47216;42.656;23.232;2022-11-23T07:09:35;92591.34;;;7.32;88.03
61345;BME280;47216;42.656;23.232;2022-11-23T07:12:02;92578.13;;;7.44;88.45
61345;BME280;47216;42.656;23.232;2022-11-23T07:14:29;92596.00;;;7.50;87.48
61345;BME280;47216;42.656;23.232;2022-11-23T07:16:56;92599.13;;;7.47;88.21
61345;BME280;47216;42.656;23.232;2022-11-23T07:19:24;92607.44;;;7.60;87.63
61345;BME280;47216;42.656;23.232;2022-11-23T07:21:51;92605.63;;;7.55;88.11
61345;BME280;47216;42.656;23.232;2022-11-23T07:24:18;92614.97;;;7.61;88.22
61345;BME280;47216;42.656;23.232;2022-11-23T07:26:45;92607.69;;;7.53;88.20
61345;BME280;47216;42.656;23.232;2022-11-23T07:29:12;92602.75;;;7.62;88.33
61345;BME280;47216;42.656;23.232;2022-11-23T07:31:39;92606.41;;;7.66;88.17
61345;BME280;47216;42.656;23.232;2022-11-23T07:34:05;92595.75;;;7.62;88.24
61345;BME280;47216;42.656;23.232;2022-11-23T07:36:35;92593.44;;;7.71;88.52
61345;BME280;47216;42.656;23.232;2022-11-23T07:39:01;92591.63;;;7.76;88.36
61345;BME280;47216;42.656;23.232;2022-11-23T07:41:28;92592.63;;;7.81;87.67
61345;BME280;47216;42.656;23.232;2022-11-23T07:43:55;92576.81;;;7.77;88.29
61345;BME280;47216;42.656;23.232;2022-11-23T07:46:22;92591.63;;;7.82;88.01
61345;BME280;47216;42.656;23.232;2022-11-23T07:48:49;92588.50;;;7.95;86.42
61345;BME280;47216;42.656;23.232;2022-11-23T07:51:15;92597.78;;;8.06;85.42
61345;BME280;47216;42.656;23.232;2022-11-23T07:53:45;92594.97;;;7.97;85.98
61345;BME280;47216;42.656;23.232;2022-11-23T07:56:12;92599.63;;;8.06;85.72
61345;BME280;47216;42.656;23.232;2022-11-23T07:58:39;92585.06;;;8.25;86.65
61345;BME280;47216;42.656;23.232;2022-11-23T08:01:06;92592.03;;;8.35;85.98
61345;BME280;47216;42.656;23.232;2022-11-23T08:03:33;92584.00;;;8.36;86.59
61345;BME280;47216;42.656;23.232;2022-11-23T08:06:00;92579.00;;;8.60;85.68
61345;BME280;47216;42.656;23.232;2022-11-23T08:08:26;92576.34;;;8.71;85.14
61345;BME280;47216;42.656;23.232;2022-11-23T08:10:55;92585.72;;;8.72;84.87
61345;BME280;47216;42.656;23.232;2022-11-23T08:13:22;92583.38;;;8.70;85.42
61345;BME280;47216;42.656;23.232;2022-11-23T08:15:49;92566.47;;;8.73;85.06
61345;BME280;47216;42.656;23.232;2022-11-23T08:18:16;92568.84;;;8.69;84.33
61345;BME280;47216;42.656;23.232;2022-11-23T08:20:43;92579.13;;;8.90;84.64
61345;BME280;47216;42.656;23.232;2022-11-23T08:23:10;92577.03;;;8.87;85.98
61345;BME280;47216;42.656;23.232;2022-11-23T08:25:36;92584.59;;;8.88;86.13
61345;BME280;47216;42.656;23.232;2022-11-23T08:28:04;92569.72;;;8.99;86.21
61345;BME280;47216;42.656;23.232;2022-11-23T08:30:32;92565.53;;;9.03;85.63
61345;BME280;47216;42.656;23.232;2022-11-23T08:33:01;92562.59;;;9.15;85.19
61345;BME280;47216;42.656;23.232;2022-11-23T08:35:28;92560.06;;;9.44;83.57
61345;BME280;47216;42.656;23.232;2022-11-23T08:37:55;92564.25;;;9.40;82.26
61345;BME280;47216;42.656;23.232;2022-11-23T08:40:22;92555.88;;;9.48;83.06
61345;BME280;47216;42.656;23.232;2022-11-23T08:42:48;92562.56;;;9.59;83.32
61345;BME280;47216;42.656;23.232;2022-11-23T08:45:17;92563.28;;;9.94;80.99
61345;BME280;47216;42.656;23.232;2022-11-23T08:47:43;92562.66;;;10.07;80.89
61345;BME280;47216;42.656;23.232;2022-11-23T08:50:10;92563.09;;;10.15;80.15
61345;BME280;47216;42.656;23.232;2022-11-23T08:52:37;92568.84;;;10.12;81.15
61345;BME280;47216;42.656;23.232;2022-11-23T08:55:05;92572.34;;;10.31;79.42
61345;BME280;47216;42.656;23.232;2022-11-23T08:57:32;92574.47;;;10.24;79.42
61345;BME280;47216;42.656;23.232;2022-11-23T08:59:59;92572.06;;;10.27;79.68
61345;BME280;47216;42.656;23.232;2022-11-23T09:02:27;92587.41;;;10.34;79.55
61345;BME280;47216;42.656;23.232;2022-11-23T09:04:53;92581.09;;;10.40;78.17
61345;BME280;47216;42.656;23.232;2022-11-23T09:07:20;92584.25;;;10.37;78.54
61345;BME280;47216;42.656;23.232;2022-11-23T09:09:47;92573.78;;;10.42;77.13
61345;BME280;47216;42.656;23.232;2022-11-23T09:12:14;92577.88;;;10.48;77.26
61345;BME280;47216;42.656;23.232;2022-11-23T09:14:41;92572.22;;;10.41;77.65
61345;BME280;47216;42.656;23.232;2022-11-23T09:17:07;92568.13;;;10.35;78.28
61345;BME280;47216;42.656;23.232;2022-11-23T09:19:36;92557.41;;;10.37;78.82
61345;BME280;47216;42.656;23.232;2022-11-23T09:22:02;92563.25;;;10.28;79.86
61345;BME280;47216;42.656;23.232;2022-11-23T09:24:29;92564.47;;;10.36;79.58
61345;BME280;47216;42.656;23.232;2022-11-23T09:26:56;92550.28;;;10.47;79.84
61345;BME280;47216;42.656;23.232;2022-11-23T09:29:23;92544.66;;;10.59;78.78
61345;BME280;47216;42.656;23.232;2022-11-23T09:31:51;92542.72;;;10.70;78.37
61345;BME280;47216;42.656;23.232;2022-11-23T09:34:18;92537.94;;;10.77;78.00
61345;BME280;47216;42.656;23.232;2022-11-23T09:36:46;92528.16;;;11.07;76.14
61345;BME280;47216;42.656;23.232;2022-11-23T09:39:13;92525.97;;;11.14;76.02
61345;BME280;47216;42.656;23.232;2022-11-23T09:41:50;92520.34;;;11.07;77.10
61345;BME280;47216;42.656;23.232;2022-11-23T09:44:23;92537.16;;;11.14;77.65
61345;BME280;47216;42.656;23.232;2022-11-23T09:47:10;92526.47;;;11.16;77.11
61345;BME280;47216;42.656;23.232;2022-11-23T09:49:46;92542.38;;;11.33;76.59
61345;BME280;47216;42.656;23.232;2022-11-23T09:52:20;92541.53;;;11.38;76.31
61345;BME280;47216;42.656;23.232;2022-11-23T09:54:50;92549.56;;;11.42;76.13
61345;BME280;47216;42.656;23.232;2022-11-23T09:57:21;92553.41;;;11.63;74.67
61345;BME280;47216;42.656;23.232;2022-11-23T09:59:53;92548.88;;;11.69;74.82
61345;BME280;47216;42.656;23.232;2022-11-23T10:02:24;92542.97;;;11.63;74.76
61345;BME280;47216;42.656;23.232;2022-11-23T10:04:54;92544.47;;;11.83;72.76
61345;BME280;47216;42.656;23.232;2022-11-23T10:07:37;92540.53;;;11.86;73.24
61345;BME280;47216;42.656;23.232;2022-11-23T10:10:18;92532.28;;;11.78;73.41
61345;BME280;47216;42.656;23.232;2022-11-23T10:12:53;92537.38;;;11.70;75.10
61345;BME280;47216;42.656;23.232;2022-11-23T10:15:27;92525.06;;;11.89;71.68
61345;BME280;47216;42.656;23.232;2022-11-23T10:18:18;92526.66;;;12.18;63.19
61345;BME280;47216;42.656;23.232;2022-11-23T10:20:54;92523.75;;;12.47;61.58
61345;BME280;47216;42.656;23.232;2022-11-23T10:23:37;92526.22;;;12.80;60.94
61345;BME280;47216;42.656;23.232;2022-11-23T10:26:09;92520.81;;;12.90;56.99
61345;BME280;47216;42.656;23.232;2022-11-23T10:28:37;92516.31;;;13.04;58.65
61345;BME280;47216;42.656;23.232;2022-11-23T10:31:12;92528.09;;;13.16;56.17
61345;BME280;47216;42.656;23.232;2022-11-23T10:33:47;92525.56;;;13.24;57.24
61345;BME280;47216;42.656;23.232;2022-11-23T10:36:15;92514.00;;;13.25;57.86
61345;BME280;47216;42.656;23.232;2022-11-23T10:38:44;92513.91;;;13.31;56.12
61345;BME280;47216;42.656;23.232;2022-11-23T10:41:13;92516.94;;;13.24;56.39
61345;BME280;47216;42.656;23.232;2022-11-23T10:43:45;92502.69;;;13.16;57.28
61345;BME280;47216;42.656;23.232;2022-11-23T10:46:25;92503.94;;;13.19;56.57
61345;BME280;47216;42.656;23.232;2022-11-23T10:48:54;92503.09;;;13.10;56.62
61345;BME280;47216;42.656;23.232;2022-11-23T10:51:26;92502.28;;;13.23;56.25
61345;BME280;47216;42.656;23.232;2022-11-23T10:53:57;92504.44;;;13.21;56.29
61345;BME280;47216;42.656;23.232;2022-11-23T10:56:26;92499.38;;;13.24;56.33
61345;BME280;47216;42.656;23.232;2022-11-23T10:58:54;92489.91;;;13.29;57.06
61345;BME280;47216;42.656;23.232;2022-11-23T11:01:22;92505.56;;;13.42;55.52
61345;BME280;47216;42.656;23.232;2022-11-23T11:03:50;92493.97;;;13.21;55.67
61345;BME280;47216;42.656;23.232;2022-11-23T11:06:21;92520.63;;;13.23;55.66
61345;BME280;47216;42.656;23.232;2022-11-23T11:08:49;92509.53;;;13.03;56.17
61345;BME280;47216;42.656;23.232;2022-11-23T11:11:24;92502.16;;;13.06;55.63
61345;BME280;47216;42.656;23.232;2022-11-23T11:14:01;92488.19;;;13.10;56.50
61345;BME280;47216;42.656;23.232;2022-11-23T11:16:30;92492.97;;;13.31;56.66
61345;BME280;47216;42.656;23.232;2022-11-23T11:18:57;92496.44;;;13.26;55.99
61345;BME280;47216;42.656;23.232;2022-11-23T11:21:30;92515.22;;;13.19;56.38
61345;BME280;47216;42.656;23.232;2022-11-23T11:23:59;92496.09;;;13.19;55.68
61345;BME280;47216;42.656;23.232;2022-11-23T11:26:29;92494.34;;;13.28;55.36
61345;BME280;47216;42.656;23.232;2022-11-23T11:28:59;92497.91;;;13.32;57.11
61345;BME280;47216;42.656;23.232;2022-11-23T11:31:42;92498.00;;;13.27;54.45
61345;BME280;47216;42.656;23.232;2022-11-23T11:34:19;92494.72;;;13.21;55.25
61345;BME280;47216;42.656;23.232;2022-11-23T11:36:55;92480.38;;;13.33;54.45
61345;BME280;47216;42.656;23.232;2022-11-23T11:39:27;92480.56;;;13.36;53.20
61345;BME280;47216;42.656;23.232;2022-11-23T11:42:01;92485.66;;;13.41;52.40
61345;BME280;47216;42.656;23.232;2022-11-23T11:44:31;92494.25;;;13.33;50.68
61345;BME280;47216;42.656;23.232;2022-11-23T11:47:05;92492.06;;;13.13;50.67
61345;BME280;47216;42.656;23.232;2022-11-23T11:49:40;92496.56;;;13.21;51.55
61345;BME280;47216;42.656;23.232;2022-11-23T11:52:10;92495.16;;;13.15;51.48
61345;BME280;47216;42.656;23.232;2022-11-23T11:54:45;92488.53;;;13.31;52.08
61345;BME280;47216;42.656;23.232;2022-11-23T11:57:19;92491.38;;;13.43;50.67
61345;BME280;47216;42.656;23.232;2022-11-23T11:59:48;92483.81;;;13.42;50.25
61345;BME280;47216;42.656;23.232;2022-11-23T12:02:21;92489.94;;;13.60;51.78
61345;BME280;47216;42.656;23.232;2022-11-23T12:04:55;92502.91;;;13.65;50.89
61345;BME280;47216;42.656;23.232;2022-11-23T12:07:28;92494.34;;;13.73;49.35
61345;BME280;47216;42.656;23.232;2022-11-23T12:10:01;92499.59;;;13.73;48.87
61345;BME280;47216;42.656;23.232;2022-11-23T12:12:33;92490.28;;;13.67;49.56
61345;BME280;47216;42.656;23.232;2022-11-23T12:15:02;92491.66;;;13.64;51.20
61345;BME280;47216;42.656;23.232;2022-11-23T12:17:40;92494.22;;;13.56;51.97
61345;BME280;47216;42.656;23.232;2022-11-23T12:20:19;92501.66;;;13.40;52.07
61345;BME280;47216;42.656;23.232;2022-11-23T12:22:57;92510.28;;;13.63;51.85
61345;BME280;47216;42.656;23.232;2022-11-23T12:25:31;92499.47;;;13.56;53.13
61345;BME280;47216;42.656;23.232;2022-11-23T12:28:17;92484.00;;;13.68;52.36
61345;BME280;47216;42.656;23.232;2022-11-23T12:30:54;92496.25;;;13.59;52.62
61345;BME280;47216;42.656;23.232;2022-11-23T12:33:45;92488.06;;;13.52;52.75
61345;BME280;47216;42.656;23.232;2022-11-23T12:36:35;92490.84;;;13.33;53.35
61345;BME280;47216;42.656;23.232;2022-11-23T12:39:16;92493.19;;;13.20;54.20
61345;BME280;47216;42.656;23.232;2022-11-23T12:41:53;92487.53;;;13.04;53.88
61345;BME280;47216;42.656;23.232;2022-11-23T12:44:53;92505.44;;;13.11;54.57
61345;BME280;47216;42.656;23.232;2022-11-23T12:47:30;92494.78;;;13.08;52.58
61345;BME280;47216;42.656;23.232;2022-11-23T12:50:12;92478.97;;;13.13;52.16
61345;BME280;47216;42.656;23.232;2022-11-23T12:52:54;92485.88;;;13.09;53.02
61345;BME280;47216;42.656;23.232;2022-11-23T12:55:27;92486.28;;;13.02;53.68
61345;BME280;47216;42.656;23.232;2022-11-23T12:58:00;92487.03;;;13.02;53.11
61345;BME280;47216;42.656;23.232;2022-11-23T13:00:34;92483.47;;;12.98;53.52
61345;BME280;47216;42.656;23.232;2022-11-23T13:09:23;92493.53;;;12.69;54.10
61345;BME280;47216;42.656;23.232;2022-11-23T13:12:19;92509.28;;;12.77;53.40
61345;BME280;47216;42.656;23.232;2022-11-23T13:14:58;92495.66;;;12.67;52.29